sensor_id;sensor_type;location;lat;lon;timestamp;P1;durP1;ratioP1;P2;durP2;ratioP2
37069;SDS011;22984;48.862;9.320;2022-12-18T00:00:58;60.55;;;19.17;;
37069;SDS011;22984;48.862;9.320;2022-12-18T00:03:24;64.22;;;20.35;;
37069;SDS011;22984;48.862;9.320;2022-12-18T00:05:51;63.50;;;20.52;;
37069;SDS011;22984;48.862;9.320;2022-12-18T00:08:18;55.80;;;19.02;;
37069;SDS011;22984;48.862;9.320;2022-12-18T00:10:44;45.67;;;15.95;;
37069;SDS011;22984;48.862;9.320;2022-12-18T00:13:11;61.47;;;21.58;;
37069;SDS011;22984;48.862;9.320;2022-12-18T00:15:37;52.80;;;17.35;;
37069;SDS011;22984;48.862;9.320;2022-12-18T00:18:04;57.63;;;19.33;;
37069;SDS011;22984;48.862;9.320;2022-12-18T00:20:30;52.03;;;16.77;;
37069;SDS011;22984;48.862;9.320;2022-12-18T00:22:56;54.40;;;18.98;;
37069;SDS011;22984;48.862;9.320;2022-12-18T00:25:22;46.20;;;18.60;;
37069;SDS011;22984;48.862;9.320;2022-12-18T00:27:48;49.13;;;16.67;;
37069;SDS011;22984;48.862;9.320;2022-12-18T00:30:14;56.10;;;17.85;;
37069;SDS011;22984;48.862;9.320;2022-12-18T00:32:40;48.72;;;17.08;;
37069;SDS011;22984;48.862;9.320;2022-12-18T00:35:06;42.78;;;16.20;;
37069;SDS011;22984;48.862;9.320;2022-12-18T00:37:33;49.10;;;18.85;;
37069;SDS011;22984;48.862;9.320;2022-12-18T00:39:59;78.20;;;21.38;;
37069;SDS011;22984;48.862;9.320;2022-12-18T00:42:25;61.47;;;20.48;;
37069;SDS011;22984;48.862;9.320;2022-12-18T00:45:10;61.88;;;19.13;;
37069;SDS011;22984;48.862;9.320;2022-12-18T00:47:36;50.25;;;18.23;;
37069;SDS011;22984;48.862;9.320;2022-12-18T00:50:02;60.83;;;20.55;;
37069;SDS011;22984;48.862;9.320;2022-12-18T00:52:28;55.63;;;19.10;;
37069;SDS011;22984;48.862;9.320;2022-12-18T00:54:54;55.30;;;19.77;;
37069;SDS011;22984;48.862;9.320;2022-12-18T00:57:20;61.00;;;19.17;;
37069;SDS011;22984;48.862;9.320;2022-12-18T00:59:46;67.55;;;20.63;;
37069;SDS011;22984;48.862;9.320;2022-12-18T01:02:12;62.58;;;22.55;;
37069;SDS011;22984;48.862;9.320;2022-12-18T01:04:38;63.80;;;20.92;;
37069;SDS011;22984;48.862;9.320;2022-12-18T01:07:04;72.45;;;21.80;;
37069;SDS011;22984;48.862;9.320;2022-12-18T01:09:30;67.70;;;20.52;;
37069;SDS011;22984;48.862;9.320;2022-12-18T01:11:56;58.72;;;20.92;;
37069;SDS011;22984;48.862;9.320;2022-12-18T01:14:22;55.38;;;19.52;;
37069;SDS011;22984;48.862;9.320;2022-12-18T01:16:48;75.70;;;22.08;;
37069;SDS011;22984;48.862;9.320;2022-12-18T01:19:14;63.85;;;23.05;;
37069;SDS011;22984;48.862;9.320;2022-12-18T01:21:40;63.80;;;20.58;;
37069;SDS011;22984;48.862;9.320;2022-12-18T01:24:06;62.17;;;22.30;;
37069;SDS011;22984;48.862;9.320;2022-12-18T01:26:32;64.15;;;23.30;;
37069;SDS011;22984;48.862;9.320;2022-12-18T01:28:58;65.78;;;21.90;;
37069;SDS011;22984;48.862;9.320;2022-12-18T01:31:28;60.95;;;21.92;;
37069;SDS011;22984;48.862;9.320;2022-12-18T01:33:55;85.47;;;23.77;;
37069;SDS011;22984;48.862;9.320;2022-12-18T01:38:47;71.85;;;22.95;;
37069;SDS011;22984;48.862;9.320;2022-12-18T01:41:14;65.50;;;22.20;;
37069;SDS011;22984;48.862;9.320;2022-12-18T01:46:09;60.20;;;20.25;;
37069;SDS011;22984;48.862;9.320;2022-12-18T01:48:35;58.38;;;20.17;;
37069;SDS011;22984;48.862;9.320;2022-12-18T01:51:02;57.90;;;20.35;;
37069;SDS011;22984;48.862;9.320;2022-12-18T01:53:28;55.53;;;20.08;;
37069;SDS011;22984;48.862;9.320;2022-12-18T01:55:55;62.70;;;20.45;;
37069;SDS011;22984;48.862;9.320;2022-12-18T01:58:23;52.33;;;18.55;;
37069;SDS011;22984;48.862;9.320;2022-12-18T02:00:50;63.92;;;19.05;;
37069;SDS011;22984;48.862;9.320;2022-12-18T02:03:16;58.88;;;18.75;;
37069;SDS011;22984;48.862;9.320;2022-12-18T02:06:04;56.22;;;17.67;;
37069;SDS011;22984;48.862;9.320;2022-12-18T02:08:33;51.97;;;16.98;;
37069;SDS011;22984;48.862;9.320;2022-12-18T02:16:24;47.15;;;19.10;;
37069;SDS011;22984;48.862;9.320;2022-12-18T02:18:48;53.03;;;18.90;;
37069;SDS011;22984;48.862;9.320;2022-12-18T02:24:30;56.67;;;19.55;;
37069;SDS011;22984;48.862;9.320;2022-12-18T02:27:04;50.47;;;18.85;;
37069;SDS011;22984;48.862;9.320;2022-12-18T02:29:33;45.15;;;18.23;;
37069;SDS011;22984;48.862;9.320;2022-12-18T02:32:01;60.20;;;19.35;;
37069;SDS011;22984;48.862;9.320;2022-12-18T02:34:29;62.42;;;18.88;;
37069;SDS011;22984;48.862;9.320;2022-12-18T02:36:56;58.05;;;19.45;;
37069;SDS011;22984;48.862;9.320;2022-12-18T02:39:23;59.22;;;20.92;;
37069;SDS011;22984;48.862;9.320;2022-12-18T02:41:50;66.75;;;20.75;;
37069;SDS011;22984;48.862;9.320;2022-12-18T02:44:17;64.45;;;22.83;;
37069;SDS011;22984;48.862;9.320;2022-12-18T02:46:47;47.22;;;19.45;;
37069;SDS011;22984;48.862;9.320;2022-12-18T02:49:21;41.22;;;14.75;;
37069;SDS011;22984;48.862;9.320;2022-12-18T02:51:55;48.05;;;18.85;;
37069;SDS011;22984;48.862;9.320;2022-12-18T02:54:29;44.15;;;18.75;;
37069;SDS011;22984;48.862;9.320;2022-12-18T02:57:00;49.85;;;19.88;;
37069;SDS011;22984;48.862;9.320;2022-12-18T02:59:34;50.17;;;19.13;;
37069;SDS011;22984;48.862;9.320;2022-12-18T03:02:07;51.15;;;18.65;;
37069;SDS011;22984;48.862;9.320;2022-12-18T03:04:42;54.08;;;18.35;;
37069;SDS011;22984;48.862;9.320;2022-12-18T03:07:11;49.78;;;17.80;;
37069;SDS011;22984;48.862;9.320;2022-12-18T03:09:42;54.42;;;19.58;;
37069;SDS011;22984;48.862;9.320;2022-12-18T03:12:21;39.67;;;14.60;;
37069;SDS011;22984;48.862;9.320;2022-12-18T03:14:49;35.95;;;15.68;;
37069;SDS011;22984;48.862;9.320;2022-12-18T03:17:17;53.78;;;19.08;;
37069;SDS011;22984;48.862;9.320;2022-12-18T03:19:43;39.15;;;15.25;;
37069;SDS011;22984;48.862;9.320;2022-12-18T03:22:10;34.70;;;15.38;;
37069;SDS011;22984;48.862;9.320;2022-12-18T03:24:37;43.38;;;18.17;;
37069;SDS011;22984;48.862;9.320;2022-12-18T03:27:05;61.08;;;20.30;;
37069;SDS011;22984;48.862;9.320;2022-12-18T03:29:37;49.40;;;18.38;;
37069;SDS011;22984;48.862;9.320;2022-12-18T03:32:21;48.42;;;15.60;;
37069;SDS011;22984;48.862;9.320;2022-12-18T03:34:49;42.53;;;15.05;;
37069;SDS011;22984;48.862;9.320;2022-12-18T03:37:16;35.67;;;15.98;;
37069;SDS011;22984;48.862;9.320;2022-12-18T03:39:42;44.97;;;16.45;;
37069;SDS011;22984;48.862;9.320;2022-12-18T03:42:15;45.83;;;13.30;;
37069;SDS011;22984;48.862;9.320;2022-12-18T03:44:50;46.17;;;15.35;;
37069;SDS011;22984;48.862;9.320;2022-12-18T03:52:21;50.13;;;18.00;;
37069;SDS011;22984;48.862;9.320;2022-12-18T03:54:49;36.47;;;14.88;;
37069;SDS011;22984;48.862;9.320;2022-12-18T03:57:17;50.95;;;17.38;;
37069;SDS011;22984;48.862;9.320;2022-12-18T03:59:45;48.28;;;16.73;;
37069;SDS011;22984;48.862;9.320;2022-12-18T04:02:11;41.85;;;15.75;;
37069;SDS011;22984;48.862;9.320;2022-12-18T04:04:37;42.88;;;15.50;;
37069;SDS011;22984;48.862;9.320;2022-12-18T04:07:04;42.10;;;14.30;;
37069;SDS011;22984;48.862;9.320;2022-12-18T04:09:31;54.35;;;16.95;;
37069;SDS011;22984;48.862;9.320;2022-12-18T04:11:57;42.53;;;15.68;;
37069;SDS011;22984;48.862;9.320;2022-12-18T04:14:23;52.53;;;16.63;;
37069;SDS011;22984;48.862;9.320;2022-12-18T04:16:49;38.92;;;15.38;;
37069;SDS011;22984;48.862;9.320;2022-12-18T04:19:16;43.92;;;16.60;;
37069;SDS011;22984;48.862;9.320;2022-12-18T04:21:42;48.00;;;15.88;;
37069;SDS011;22984;48.862;9.320;2022-12-18T04:24:08;43.75;;;15.95;;
37069;SDS011;22984;48.862;9.320;2022-12-18T04:26:34;50.15;;;16.38;;
37069;SDS011;22984;48.862;9.320;2022-12-18T04:29:00;34.38;;;13.63;;
37069;SDS011;22984;48.862;9.320;2022-12-18T04:31:26;47.13;;;16.00;;
37069;SDS011;22984;48.862;9.320;2022-12-18T04:33:52;51.10;;;16.33;;
37069;SDS011;22984;48.862;9.320;2022-12-18T04:36:18;48.67;;;15.65;;
37069;SDS011;22984;48.862;9.320;2022-12-18T04:38:44;43.88;;;16.58;;
37069;SDS011;22984;48.862;9.320;2022-12-18T04:41:10;50.10;;;18.00;;
37069;SDS011;22984;48.862;9.320;2022-12-18T04:43:39;55.65;;;17.45;;
37069;SDS011;22984;48.862;9.320;2022-12-18T04:46:06;39.75;;;15.35;;
37069;SDS011;22984;48.862;9.320;2022-12-18T04:48:32;38.97;;;15.35;;
37069;SDS011;22984;48.862;9.320;2022-12-18T04:50:58;50.10;;;14.32;;
37069;SDS011;22984;48.862;9.320;2022-12-18T04:53:24;38.72;;;13.52;;
37069;SDS011;22984;48.862;9.320;2022-12-18T04:55:51;46.47;;;14.55;;
37069;SDS011;22984;48.862;9.320;2022-12-18T04:58:27;43.60;;;14.90;;
37069;SDS011;22984;48.862;9.320;2022-12-18T05:00:53;37.92;;;14.60;;
37069;SDS011;22984;48.862;9.320;2022-12-18T05:03:19;42.47;;;13.88;;
37069;SDS011;22984;48.862;9.320;2022-12-18T05:05:45;47.35;;;15.65;;
37069;SDS011;22984;48.862;9.320;2022-12-18T05:08:11;50.72;;;15.75;;
37069;SDS011;22984;48.862;9.320;2022-12-18T05:10:37;49.50;;;16.38;;
37069;SDS011;22984;48.862;9.320;2022-12-18T05:13:03;33.00;;;13.50;;
37069;SDS011;22984;48.862;9.320;2022-12-18T05:15:29;38.40;;;14.93;;
37069;SDS011;22984;48.862;9.320;2022-12-18T05:17:57;36.95;;;13.13;;
37069;SDS011;22984;48.862;9.320;2022-12-18T05:20:23;36.22;;;15.05;;
37069;SDS011;22984;48.862;9.320;2022-12-18T05:22:50;35.97;;;12.77;;
37069;SDS011;22984;48.862;9.320;2022-12-18T05:25:16;49.65;;;16.20;;
37069;SDS011;22984;48.862;9.320;2022-12-18T05:27:42;43.17;;;16.23;;
37069;SDS011;22984;48.862;9.320;2022-12-18T05:30:08;41.50;;;14.63;;
37069;SDS011;22984;48.862;9.320;2022-12-18T05:32:34;36.50;;;12.88;;
37069;SDS011;22984;48.862;9.320;2022-12-18T05:35:00;47.65;;;15.02;;
37069;SDS011;22984;48.862;9.320;2022-12-18T05:37:27;38.33;;;14.43;;
37069;SDS011;22984;48.862;9.320;2022-12-18T05:39:53;42.40;;;14.88;;
37069;SDS011;22984;48.862;9.320;2022-12-18T05:42:19;35.33;;;14.80;;
37069;SDS011;22984;48.862;9.320;2022-12-18T05:44:45;53.83;;;16.33;;
37069;SDS011;22984;48.862;9.320;2022-12-18T05:47:11;41.63;;;14.98;;
37069;SDS011;22984;48.862;9.320;2022-12-18T05:49:37;58.25;;;18.55;;
37069;SDS011;22984;48.862;9.320;2022-12-18T05:52:03;52.45;;;16.45;;
37069;SDS011;22984;48.862;9.320;2022-12-18T05:54:29;48.53;;;14.98;;
37069;SDS011;22984;48.862;9.320;2022-12-18T05:56:56;46.58;;;16.63;;
37069;SDS011;22984;48.862;9.320;2022-12-18T05:59:22;51.88;;;15.18;;
37069;SDS011;22984;48.862;9.320;2022-12-18T06:01:48;54.00;;;14.65;;
37069;SDS011;22984;48.862;9.320;2022-12-18T06:04:14;53.90;;;16.15;;
37069;SDS011;22984;48.862;9.320;2022-12-18T06:06:40;40.88;;;14.85;;
37069;SDS011;22984;48.862;9.320;2022-12-18T06:09:06;43.28;;;13.25;;
37069;SDS011;22984;48.862;9.320;2022-12-18T06:11:34;48.88;;;14.77;;
37069;SDS011;22984;48.862;9.320;2022-12-18T06:14:02;42.25;;;13.60;;
37069;SDS011;22984;48.862;9.320;2022-12-18T06:16:28;38.45;;;14.02;;
37069;SDS011;22984;48.862;9.320;2022-12-18T06:18:57;47.33;;;15.05;;
37069;SDS011;22984;48.862;9.320;2022-12-18T06:21:24;34.72;;;12.80;;
37069;SDS011;22984;48.862;9.320;2022-12-18T06:23:50;35.83;;;13.43;;
37069;SDS011;22984;48.862;9.320;2022-12-18T06:26:16;47.03;;;13.68;;
37069;SDS011;22984;48.862;9.320;2022-12-18T06:28:42;33.88;;;12.70;;
37069;SDS011;22984;48.862;9.320;2022-12-18T06:31:08;39.17;;;14.55;;
37069;SDS011;22984;48.862;9.320;2022-12-18T06:33:35;35.40;;;13.02;;
37069;SDS011;22984;48.862;9.320;2022-12-18T06:36:05;45.13;;;13.35;;
37069;SDS011;22984;48.862;9.320;2022-12-18T06:38:32;42.78;;;13.27;;
37069;SDS011;22984;48.862;9.320;2022-12-18T06:40:58;39.65;;;12.50;;
37069;SDS011;22984;48.862;9.320;2022-12-18T06:43:24;41.72;;;12.77;;
37069;SDS011;22984;48.862;9.320;2022-12-18T06:45:50;45.45;;;14.60;;
37069;SDS011;22984;48.862;9.320;2022-12-18T06:48:20;35.88;;;12.55;;
37069;SDS011;22984;48.862;9.320;2022-12-18T06:50:47;32.13;;;11.50;;
37069;SDS011;22984;48.862;9.320;2022-12-18T06:53:13;47.70;;;15.00;;
37069;SDS011;22984;48.862;9.320;2022-12-18T06:55:39;30.85;;;12.68;;
37069;SDS011;22984;48.862;9.320;2022-12-18T06:58:05;36.55;;;14.98;;
37069;SDS011;22984;48.862;9.320;2022-12-18T07:00:31;45.30;;;16.58;;
37069;SDS011;22984;48.862;9.320;2022-12-18T07:02:57;39.08;;;13.90;;
37069;SDS011;22984;48.862;9.320;2022-12-18T07:05:23;41.08;;;14.50;;
37069;SDS011;22984;48.862;9.320;2022-12-18T07:07:49;46.28;;;15.82;;
37069;SDS011;22984;48.862;9.320;2022-12-18T07:10:15;34.83;;;13.20;;
37069;SDS011;22984;48.862;9.320;2022-12-18T07:12:41;40.53;;;14.05;;
37069;SDS011;22984;48.862;9.320;2022-12-18T07:15:07;37.17;;;14.20;;
37069;SDS011;22984;48.862;9.320;2022-12-18T07:17:33;42.80;;;14.13;;
37069;SDS011;22984;48.862;9.320;2022-12-18T07:19:59;39.55;;;12.10;;
37069;SDS011;22984;48.862;9.320;2022-12-18T07:22:26;38.00;;;12.65;;
37069;SDS011;22984;48.862;9.320;2022-12-18T07:24:52;42.45;;;14.93;;
37069;SDS011;22984;48.862;9.320;2022-12-18T07:27:18;45.85;;;14.93;;
37069;SDS011;22984;48.862;9.320;2022-12-18T07:29:44;37.35;;;14.77;;
37069;SDS011;22984;48.862;9.320;2022-12-18T07:32:10;52.05;;;14.88;;
37069;SDS011;22984;48.862;9.320;2022-12-18T07:34:36;42.30;;;13.75;;
37069;SDS011;22984;48.862;9.320;2022-12-18T07:37:02;44.25;;;14.93;;
37069;SDS011;22984;48.862;9.320;2022-12-18T07:39:28;39.67;;;15.63;;
37069;SDS011;22984;48.862;9.320;2022-12-18T07:41:54;49.08;;;16.00;;
37069;SDS011;22984;48.862;9.320;2022-12-18T07:44:38;46.45;;;15.00;;
37069;SDS011;22984;48.862;9.320;2022-12-18T07:47:05;48.35;;;15.63;;
37069;SDS011;22984;48.862;9.320;2022-12-18T07:49:31;47.30;;;14.40;;
37069;SDS011;22984;48.862;9.320;2022-12-18T07:51:57;52.75;;;16.05;;
37069;SDS011;22984;48.862;9.320;2022-12-18T07:54:23;45.78;;;16.45;;
37069;SDS011;22984;48.862;9.320;2022-12-18T07:56:50;43.80;;;14.68;;
37069;SDS011;22984;48.862;9.320;2022-12-18T07:59:16;54.40;;;15.73;;
37069;SDS011;22984;48.862;9.320;2022-12-18T08:01:42;43.67;;;14.93;;
37069;SDS011;22984;48.862;9.320;2022-12-18T08:04:08;47.53;;;15.43;;
37069;SDS011;22984;48.862;9.320;2022-12-18T08:06:35;46.00;;;15.52;;
37069;SDS011;22984;48.862;9.320;2022-12-18T08:09:01;46.13;;;14.38;;
37069;SDS011;22984;48.862;9.320;2022-12-18T08:11:27;41.95;;;13.55;;
37069;SDS011;22984;48.862;9.320;2022-12-18T08:13:54;61.40;;;17.15;;
37069;SDS011;22984;48.862;9.320;2022-12-18T08:16:21;50.97;;;15.75;;
37069;SDS011;22984;48.862;9.320;2022-12-18T08:18:47;56.22;;;16.75;;
37069;SDS011;22984;48.862;9.320;2022-12-18T08:21:18;51.45;;;17.65;;
37069;SDS011;22984;48.862;9.320;2022-12-18T08:23:46;42.20;;;15.70;;
37069;SDS011;22984;48.862;9.320;2022-12-18T08:26:12;44.83;;;18.45;;
37069;SDS011;22984;48.862;9.320;2022-12-18T08:28:38;51.65;;;17.45;;
37069;SDS011;22984;48.862;9.320;2022-12-18T08:31:04;50.38;;;18.80;;
37069;SDS011;22984;48.862;9.320;2022-12-18T08:33:31;50.97;;;17.27;;
37069;SDS011;22984;48.862;9.320;2022-12-18T08:35:58;61.13;;;18.50;;
37069;SDS011;22984;48.862;9.320;2022-12-18T08:38:24;56.97;;;17.52;;
37069;SDS011;22984;48.862;9.320;2022-12-18T08:40:54;49.65;;;18.27;;
37069;SDS011;22984;48.862;9.320;2022-12-18T08:43:24;66.07;;;21.42;;
37069;SDS011;22984;48.862;9.320;2022-12-18T08:46:08;60.60;;;20.10;;
37069;SDS011;22984;48.862;9.320;2022-12-18T08:48:34;47.72;;;20.20;;
37069;SDS011;22984;48.862;9.320;2022-12-18T08:51:00;54.05;;;19.13;;
37069;SDS011;22984;48.862;9.320;2022-12-18T08:53:27;50.72;;;19.70;;
37069;SDS011;22984;48.862;9.320;2022-12-18T08:55:53;60.45;;;18.40;;
37069;SDS011;22984;48.862;9.320;2022-12-18T08:58:19;64.63;;;21.80;;
37069;SDS011;22984;48.862;9.320;2022-12-18T09:00:45;63.15;;;20.95;;
37069;SDS011;22984;48.862;9.320;2022-12-18T09:03:12;72.65;;;23.42;;
37069;SDS011;22984;48.862;9.320;2022-12-18T09:05:38;58.08;;;21.92;;
37069;SDS011;22984;48.862;9.320;2022-12-18T09:08:04;59.08;;;21.08;;
37069;SDS011;22984;48.862;9.320;2022-12-18T09:10:30;61.40;;;24.25;;
37069;SDS011;22984;48.862;9.320;2022-12-18T09:12:57;52.28;;;22.25;;
37069;SDS011;22984;48.862;9.320;2022-12-18T09:15:23;47.85;;;22.20;;
37069;SDS011;22984;48.862;9.320;2022-12-18T21:59:52;34.33;;;12.18;;
37069;SDS011;22984;48.862;9.320;2022-12-18T22:02:19;34.40;;;13.27;;
37069;SDS011;22984;48.862;9.320;2022-12-18T22:04:46;45.60;;;15.88;;
37069;SDS011;22984;48.862;9.320;2022-12-18T22:07:13;40.30;;;14.88;;
37069;SDS011;22984;48.862;9.320;2022-12-18T22:09:39;42.15;;;16.08;;
37069;SDS011;22984;48.862;9.320;2022-12-18T22:12:06;35.55;;;15.38;;
37069;SDS011;22984;48.862;9.320;2022-12-18T22:14:33;40.83;;;14.88;;
37069;SDS011;22984;48.862;9.320;2022-12-18T22:16:59;36.58;;;14.27;;
37069;SDS011;22984;48.862;9.320;2022-12-18T22:19:25;39.88;;;17.20;;
37069;SDS011;22984;48.862;9.320;2022-12-18T22:21:52;45.00;;;16.52;;
37069;SDS011;22984;48.862;9.320;2022-12-18T22:24:19;38.47;;;14.10;;
37069;SDS011;22984;48.862;9.320;2022-12-18T22:26:46;44.47;;;17.20;;
37069;SDS011;22984;48.862;9.320;2022-12-18T22:29:13;39.35;;;13.57;;
37069;SDS011;22984;48.862;9.320;2022-12-18T22:32:10;42.17;;;15.90;;
37069;SDS011;22984;48.862;9.320;2022-12-18T22:34:36;37.65;;;13.15;;
37069;SDS011;22984;48.862;9.320;2022-12-18T22:37:03;38.38;;;14.35;;
37069;SDS011;22984;48.862;9.320;2022-12-18T22:39:29;43.30;;;17.20;;
37069;SDS011;22984;48.862;9.320;2022-12-18T22:41:55;39.15;;;16.80;;
37069;SDS011;22984;48.862;9.320;2022-12-18T22:44:22;37.20;;;14.23;;
37069;SDS011;22984;48.862;9.320;2022-12-18T22:46:52;40.95;;;15.95;;
37069;SDS011;22984;48.862;9.320;2022-12-18T22:49:19;37.45;;;14.60;;
37069;SDS011;22984;48.862;9.320;2022-12-18T22:51:46;35.58;;;16.15;;
37069;SDS011;22984;48.862;9.320;2022-12-18T22:54:12;43.40;;;14.82;;
37069;SDS011;22984;48.862;9.320;2022-12-18T22:56:38;39.88;;;15.77;;
37069;SDS011;22984;48.862;9.320;2022-12-18T22:59:05;47.45;;;17.80;;
37069;SDS011;22984;48.862;9.320;2022-12-18T23:01:31;42.50;;;16.42;;
37069;SDS011;22984;48.862;9.320;2022-12-18T23:03:57;37.95;;;15.70;;
37069;SDS011;22984;48.862;9.320;2022-12-18T23:06:24;39.72;;;14.90;;
37069;SDS011;22984;48.862;9.320;2022-12-18T23:08:51;43.92;;;15.90;;
37069;SDS011;22984;48.862;9.320;2022-12-18T23:11:17;42.63;;;15.68;;
37069;SDS011;22984;48.862;9.320;2022-12-18T23:13:44;40.10;;;16.60;;
37069;SDS011;22984;48.862;9.320;2022-12-18T23:16:14;38.58;;;15.60;;
37069;SDS011;22984;48.862;9.320;2022-12-18T23:18:41;42.28;;;16.30;;
37069;SDS011;22984;48.862;9.320;2022-12-18T23:21:08;37.80;;;14.68;;
37069;SDS011;22984;48.862;9.320;2022-12-18T23:23:35;36.97;;;15.60;;
37069;SDS011;22984;48.862;9.320;2022-12-18T23:26:02;35.90;;;14.13;;
37069;SDS011;22984;48.862;9.320;2022-12-18T23:28:29;38.42;;;15.20;;
37069;SDS011;22984;48.862;9.320;2022-12-18T23:31:00;38.78;;;14.25;;
37069;SDS011;22984;48.862;9.320;2022-12-18T23:33:26;38.42;;;15.35;;
37069;SDS011;22984;48.862;9.320;2022-12-18T23:35:56;41.72;;;15.85;;
37069;SDS011;22984;48.862;9.320;2022-12-18T23:38:22;37.65;;;15.27;;
37069;SDS011;22984;48.862;9.320;2022-12-18T23:40:48;37.17;;;15.48;;
37069;SDS011;22984;48.862;9.320;2022-12-18T23:43:14;46.50;;;15.38;;
37069;SDS011;22984;48.862;9.320;2022-12-18T23:45:40;38.78;;;16.52;;
37069;SDS011;22984;48.862;9.320;2022-12-18T23:48:06;39.05;;;15.23;;
37069;SDS011;22984;48.862;9.320;2022-12-18T23:50:33;38.53;;;15.27;;
37069;SDS011;22984;48.862;9.320;2022-12-18T23:52:59;33.72;;;14.38;;
37069;SDS011;22984;48.862;9.320;2022-12-18T23:55:25;41.55;;;15.00;;
37069;SDS011;22984;48.862;9.320;2022-12-18T23:57:51;35.42;;;14.98;;
